Terminal Aerodrome Forecast
Issued by NWS Goodland, KS

Home | Current Version | Previous Version | Text Only | Print | Product List | Glossary On
Versions: 1 2 3 4 5 6 7 8 9 10 11 12 13 14
000
FTUS43 KGLD 060520
TAFGLD
TAF
KGLD 060520Z 0606/0706 17011G22KT P6SM FEW250 WS002/17045KT
     FM061200 17013KT P6SM FEW250
     FM061800 18018G25KT P6SM SCT250
     FM070400 17013KT P6SM SCT250 WS005/19045KT=

USA.gov is the U.S. government's official web portal to all federal, state and local government web resources and services.